createdAt,value
2018-02-23T00:00:21.281Z,0.00
2018-02-23T00:01:21.278Z,0.00
2018-02-23T00:02:21.295Z,0.00
2018-02-23T00:03:21.293Z,0.00
2018-02-23T00:04:21.310Z,0.00
2018-02-23T00:05:21.291Z,0.00
2018-02-23T00:06:21.327Z,0.00
2018-02-23T00:07:21.309Z,0.00
2018-02-23T00:08:21.299Z,0.00
2018-02-23T00:09:21.321Z,0.00
2018-02-23T00:10:21.322Z,0.00
2018-02-23T00:11:21.332Z,0.00
2018-02-23T00:12:21.333Z,0.00
2018-02-23T00:13:21.379Z,0.00
2018-02-23T00:14:21.326Z,0.00
2018-02-23T00:15:21.344Z,0.00
2018-02-23T00:16:21.437Z,0.00
2018-02-23T00:17:21.401Z,0.00
2018-02-23T00:18:21.378Z,0.00
2018-02-23T00:19:21.366Z,0.00
2018-02-23T00:20:21.386Z,0.00
2018-02-23T00:21:21.408Z,0.00
2018-02-23T00:22:21.397Z,0.00
2018-02-23T00:23:21.401Z,0.00
2018-02-23T00:24:21.375Z,0.00
2018-02-23T00:25:21.462Z,0.00
2018-02-23T00:26:21.392Z,0.00
2018-02-23T00:27:21.394Z,0.00
2018-02-23T00:28:21.451Z,0.00
2018-02-23T00:29:21.403Z,0.00
2018-02-23T00:30:21.466Z,0.00
2018-02-23T00:31:21.411Z,0.00
2018-02-23T00:32:21.414Z,0.00
2018-02-23T00:33:21.423Z,0.00
2018-02-23T00:34:21.460Z,0.00
2018-02-23T00:35:21.440Z,0.00
2018-02-23T00:36:21.436Z,0.00
2018-02-23T00:37:21.459Z,0.00
2018-02-23T00:38:21.457Z,0.00
2018-02-23T00:39:21.573Z,0.00
2018-02-23T00:40:21.464Z,0.00
2018-02-23T00:41:21.462Z,0.00
2018-02-23T00:42:21.482Z,0.00
2018-02-23T00:43:21.487Z,0.00
2018-02-23T00:44:21.547Z,0.00
2018-02-23T00:45:21.488Z,0.00
2018-02-23T00:46:21.542Z,0.00
2018-02-23T00:47:21.513Z,0.00
2018-02-23T00:48:21.498Z,0.00
2018-02-23T00:49:21.507Z,0.00
2018-02-23T00:50:21.530Z,0.00
2018-02-23T00:51:21.549Z,0.00
2018-02-23T00:52:21.507Z,0.00
2018-02-23T00:53:21.520Z,0.00
2018-02-23T00:54:22.062Z,0.00
2018-02-23T00:55:21.527Z,0.00
2018-02-23T00:56:21.544Z,0.00
2018-02-23T00:57:21.548Z,0.00
2018-02-23T00:58:21.562Z,0.00
2018-02-23T00:59:21.545Z,0.00
2018-02-23T01:00:21.552Z,0.00
2018-02-23T01:01:21.567Z,0.00
2018-02-23T01:02:21.577Z,0.00
2018-02-23T01:03:21.572Z,0.00
2018-02-23T01:04:21.580Z,0.00
2018-02-23T01:05:21.591Z,0.00
2018-02-23T01:06:21.619Z,0.00
2018-02-23T01:07:21.635Z,0.00
2018-02-23T01:08:21.627Z,0.00
2018-02-23T01:09:21.589Z,0.00
2018-02-23T01:10:21.637Z,0.00
2018-02-23T01:11:21.623Z,0.00
2018-02-23T01:12:21.603Z,0.00
2018-02-23T01:13:21.616Z,0.00
2018-02-23T01:14:21.648Z,0.00
2018-02-23T01:15:21.635Z,0.00
2018-02-23T01:16:21.628Z,0.00
2018-02-23T01:17:21.651Z,0.00
2018-02-23T01:18:21.648Z,0.00
2018-02-23T01:19:21.654Z,0.00
2018-02-23T01:20:21.757Z,0.00
2018-02-23T01:21:21.648Z,0.00
2018-02-23T01:22:21.658Z,0.00
2018-02-23T01:23:21.662Z,0.00
2018-02-23T01:24:21.661Z,0.00
2018-02-23T01:25:21.689Z,0.00
2018-02-23T01:26:21.676Z,0.00
2018-02-23T01:27:21.692Z,0.00
2018-02-23T01:28:21.693Z,0.00
2018-02-23T01:29:21.731Z,0.00
2018-02-23T01:30:21.696Z,0.00
2018-02-23T01:31:21.714Z,0.00
2018-02-23T01:32:21.717Z,0.00
2018-02-23T01:33:21.730Z,0.00
2018-02-23T01:34:21.744Z,0.00
2018-02-23T01:35:21.840Z,0.00
2018-02-23T01:36:21.731Z,0.00
2018-02-23T01:37:21.755Z,0.00
2018-02-23T01:38:21.757Z,0.00
2018-02-23T01:39:21.776Z,0.00
2018-02-23T01:40:21.752Z,0.00
2018-02-23T01:41:21.764Z,0.00
2018-02-23T01:42:21.764Z,0.00
2018-02-23T01:43:21.768Z,0.00
2018-02-23T01:44:21.778Z,0.00
2018-02-23T01:45:21.813Z,0.00
2018-02-23T01:46:21.790Z,0.00
2018-02-23T01:47:21.778Z,0.00
2018-02-23T01:48:21.830Z,0.00
2018-02-23T01:49:21.805Z,0.00
2018-02-23T01:50:21.810Z,0.00
2018-02-23T01:51:21.792Z,0.00
2018-02-23T01:52:21.859Z,0.00
2018-02-23T01:53:21.842Z,0.00
2018-02-23T01:54:21.834Z,0.00
2018-02-23T01:55:21.839Z,0.00
2018-02-23T01:56:21.819Z,0.00
2018-02-23T01:57:21.849Z,0.00
2018-02-23T01:58:22.564Z,0.00
2018-02-23T01:59:21.903Z,0.00
2018-02-23T02:00:21.847Z,0.00
2018-02-23T02:01:21.915Z,0.00
2018-02-23T02:02:21.875Z,0.00
2018-02-23T02:03:21.890Z,0.00
2018-02-23T02:04:21.860Z,0.00
2018-02-23T02:05:21.868Z,0.00
2018-02-23T02:06:21.878Z,0.00
2018-02-23T02:07:21.870Z,0.00
2018-02-23T02:08:21.875Z,0.00
2018-02-23T02:09:21.881Z,0.00
2018-02-23T02:10:21.896Z,0.00
2018-02-23T02:11:21.904Z,0.00
2018-02-23T02:12:21.895Z,0.00
2018-02-23T02:13:21.916Z,0.00
2018-02-23T02:14:21.912Z,0.00
2018-02-23T02:15:21.918Z,0.00
2018-02-23T02:16:21.922Z,0.00
2018-02-23T02:17:21.930Z,0.00
2018-02-23T02:18:21.935Z,0.00
2018-02-23T02:19:21.944Z,0.00
2018-02-23T02:20:21.948Z,0.00
2018-02-23T02:21:21.951Z,0.00
2018-02-23T02:22:21.955Z,0.00
2018-02-23T02:23:21.961Z,0.00
2018-02-23T02:24:21.974Z,0.00
2018-02-23T02:25:21.971Z,0.00
2018-02-23T02:26:21.969Z,0.00
2018-02-23T02:27:21.976Z,0.00
2018-02-23T02:28:22.009Z,0.00
2018-02-23T02:29:22.017Z,0.00
2018-02-23T02:30:22.000Z,0.00
2018-02-23T02:31:22.034Z,0.00
2018-02-23T02:32:22.004Z,0.00
2018-02-23T02:33:22.021Z,0.00
2018-02-23T02:34:22.004Z,0.00
2018-02-23T02:35:22.018Z,0.00
2018-02-23T02:36:22.063Z,0.00
2018-02-23T02:37:22.021Z,0.00
2018-02-23T02:38:22.026Z,0.00
2018-02-23T02:39:22.091Z,0.00
2018-02-23T02:40:22.036Z,0.00
2018-02-23T02:41:22.048Z,0.00
2018-02-23T02:42:22.072Z,0.00
2018-02-23T02:43:22.074Z,0.00
2018-02-23T02:44:22.072Z,0.00
2018-02-23T02:45:22.150Z,0.00
2018-02-23T02:46:22.084Z,0.00
2018-02-23T02:47:22.097Z,0.00
2018-02-23T02:48:22.117Z,0.00
2018-02-23T02:49:22.137Z,0.00
2018-02-23T02:50:22.072Z,0.00
2018-02-23T02:51:22.089Z,0.00
2018-02-23T02:52:22.140Z,0.00
2018-02-23T02:53:22.095Z,0.00
2018-02-23T02:54:22.112Z,0.00
2018-02-23T02:55:22.150Z,0.00
2018-02-23T02:56:22.119Z,0.00
2018-02-23T02:57:22.133Z,0.00
2018-02-23T02:58:22.130Z,0.00
2018-02-23T02:59:22.120Z,0.00
2018-02-23T03:00:22.131Z,0.00
2018-02-23T03:01:22.167Z,0.00
2018-02-23T03:02:22.137Z,0.00
2018-02-23T03:03:22.145Z,0.00
2018-02-23T03:04:22.162Z,0.00
2018-02-23T03:05:22.224Z,0.00
2018-02-23T03:06:22.164Z,0.00
2018-02-23T03:07:22.190Z,0.00
2018-02-23T03:08:22.161Z,0.00
2018-02-23T03:09:22.164Z,0.00
2018-02-23T03:10:22.213Z,0.00
2018-02-23T03:11:22.212Z,0.00
2018-02-23T03:12:22.185Z,0.00
2018-02-23T03:13:22.204Z,0.00
2018-02-23T03:14:22.212Z,0.00
2018-02-23T03:15:22.202Z,0.00
2018-02-23T03:16:22.195Z,0.00
2018-02-23T03:17:22.202Z,0.00
2018-02-23T03:18:22.230Z,0.00
2018-02-23T03:19:22.234Z,0.00
2018-02-23T03:20:23.063Z,0.00
2018-02-23T03:21:22.219Z,0.00
2018-02-23T03:22:22.229Z,0.00
2018-02-23T03:23:22.228Z,0.00
2018-02-23T03:24:22.272Z,0.00
2018-02-23T03:25:22.255Z,0.00
2018-02-23T03:26:22.258Z,0.00
2018-02-23T03:27:22.256Z,0.00
2018-02-23T03:28:22.243Z,0.00
2018-02-23T03:29:22.266Z,0.00
2018-02-23T03:30:22.277Z,0.00
2018-02-23T03:31:22.268Z,0.00
2018-02-23T03:32:22.282Z,0.00
2018-02-23T03:33:22.355Z,0.00
2018-02-23T03:34:22.285Z,0.00
2018-02-23T03:35:22.289Z,0.00
2018-02-23T03:36:22.293Z,0.00
2018-02-23T03:37:22.347Z,0.00
2018-02-23T03:38:22.342Z,0.00
2018-02-23T03:39:22.305Z,0.00
2018-02-23T03:40:22.307Z,0.00
2018-02-23T03:41:22.311Z,0.00
2018-02-23T03:42:22.338Z,0.00
2018-02-23T03:43:22.390Z,0.00
2018-02-23T03:44:22.325Z,0.00
2018-02-23T03:45:22.406Z,0.00
2018-02-23T03:46:22.389Z,0.00
2018-02-23T03:47:22.341Z,0.00
2018-02-23T03:48:22.355Z,0.00
2018-02-23T03:49:22.336Z,0.00
2018-02-23T03:50:22.346Z,0.00
2018-02-23T03:51:22.353Z,0.00
2018-02-23T03:52:22.362Z,0.00
2018-02-23T03:53:22.369Z,0.00
2018-02-23T03:54:22.362Z,0.00
2018-02-23T03:55:22.383Z,0.00
2018-02-23T03:56:22.384Z,0.00
2018-02-23T03:57:22.377Z,0.00
2018-02-23T03:58:22.384Z,0.00
2018-02-23T03:59:22.387Z,0.00
2018-02-23T04:00:22.394Z,0.00
2018-02-23T04:01:22.406Z,0.00
2018-02-23T04:02:22.405Z,0.00
2018-02-23T04:03:22.406Z,0.00
2018-02-23T04:04:22.413Z,0.00
2018-02-23T04:05:22.435Z,0.00
2018-02-23T04:06:22.427Z,0.00
2018-02-23T04:07:22.435Z,0.00
2018-02-23T04:08:22.421Z,0.00
2018-02-23T04:09:22.445Z,0.00
2018-02-23T04:10:22.430Z,0.00
2018-02-23T04:11:22.464Z,0.00
2018-02-23T04:12:22.483Z,0.00
2018-02-23T04:13:22.454Z,0.00
2018-02-23T04:14:22.478Z,0.00
2018-02-23T04:15:22.491Z,0.00
2018-02-23T04:16:22.503Z,0.00
2018-02-23T04:17:22.487Z,0.00
2018-02-23T04:18:22.469Z,0.00
2018-02-23T04:19:22.480Z,0.00
2018-02-23T04:20:22.472Z,0.00
2018-02-23T04:21:22.496Z,0.00
2018-02-23T04:22:22.492Z,0.00
2018-02-23T04:23:22.552Z,0.00
2018-02-23T04:24:22.603Z,0.00
2018-02-23T04:25:22.538Z,0.00
2018-02-23T04:26:22.570Z,0.00
2018-02-23T04:27:22.527Z,0.00
2018-02-23T04:28:22.496Z,0.00
2018-02-23T04:29:22.501Z,0.00
2018-02-23T04:30:22.525Z,0.00
2018-02-23T04:31:22.525Z,0.00
2018-02-23T04:32:22.532Z,0.00
2018-02-23T04:33:22.524Z,0.00
2018-02-23T04:34:22.549Z,0.00
2018-02-23T04:35:22.563Z,0.00
2018-02-23T04:36:22.541Z,0.00
2018-02-23T04:37:22.588Z,0.00
2018-02-23T04:38:22.559Z,0.00
2018-02-23T04:39:22.568Z,0.00
2018-02-23T04:40:22.560Z,0.00
2018-02-23T04:41:22.570Z,0.00
2018-02-23T04:42:22.563Z,0.00
2018-02-23T04:43:22.581Z,0.00
2018-02-23T04:44:22.583Z,0.00
2018-02-23T04:45:22.596Z,0.00
2018-02-23T04:46:22.595Z,0.00
2018-02-23T04:47:22.616Z,0.00
2018-02-23T04:48:22.595Z,0.00
2018-02-23T04:49:22.602Z,0.00
2018-02-23T04:50:22.620Z,0.00
2018-02-23T04:51:22.641Z,0.00
2018-02-23T04:52:23.061Z,0.00
2018-02-23T04:53:22.603Z,0.00
2018-02-23T04:54:22.633Z,0.00
2018-02-23T04:55:22.656Z,0.00
2018-02-23T04:56:22.624Z,0.00
2018-02-23T04:57:22.639Z,0.00
2018-02-23T04:58:22.634Z,0.00
2018-02-23T04:59:22.627Z,0.00
2018-02-23T05:00:22.644Z,0.00
2018-02-23T05:01:22.658Z,0.00
2018-02-23T05:02:22.636Z,0.00
2018-02-23T05:03:22.688Z,0.00
2018-02-23T05:04:22.650Z,0.00
2018-02-23T05:05:22.786Z,0.00
2018-02-23T05:06:22.661Z,0.00
2018-02-23T05:07:22.706Z,0.00
2018-02-23T05:08:22.664Z,0.00
2018-02-23T05:09:22.674Z,0.00
2018-02-23T05:10:22.699Z,0.00
2018-02-23T05:11:22.683Z,0.00
2018-02-23T05:12:22.730Z,0.00
2018-02-23T05:13:22.687Z,0.00
2018-02-23T05:14:22.708Z,0.00
2018-02-23T05:15:22.700Z,0.00
2018-02-23T05:16:22.718Z,0.00
2018-02-23T05:17:22.715Z,0.00
2018-02-23T05:18:22.760Z,0.00
2018-02-23T05:19:22.705Z,0.00
2018-02-23T05:20:22.738Z,0.00
2018-02-23T05:21:22.742Z,0.00
2018-02-23T05:22:22.735Z,0.00
2018-02-23T05:24:22.744Z,0.00
2018-02-23T05:25:22.744Z,0.00
2018-02-23T05:26:22.731Z,0.00
2018-02-23T05:27:22.736Z,0.00
2018-02-23T05:28:23.563Z,0.00
2018-02-23T05:29:22.749Z,0.00
2018-02-23T05:30:22.747Z,0.00
2018-02-23T05:31:22.784Z,0.00
2018-02-23T05:32:22.762Z,0.00
2018-02-23T05:33:22.766Z,0.00
2018-02-23T05:34:22.768Z,0.00
2018-02-23T05:35:22.769Z,0.00
2018-02-23T05:36:22.787Z,0.00
2018-02-23T05:37:22.768Z,0.00
2018-02-23T05:38:22.792Z,0.00
2018-02-23T05:39:22.779Z,0.00
2018-02-23T05:40:22.807Z,0.00
2018-02-23T05:41:22.795Z,0.00
2018-02-23T05:42:22.785Z,0.00
2018-02-23T05:43:22.838Z,0.00
2018-02-23T05:44:22.804Z,0.00
2018-02-23T05:45:22.798Z,0.00
2018-02-23T05:46:22.885Z,0.00
2018-02-23T05:47:22.843Z,0.00
2018-02-23T05:48:22.838Z,0.00
2018-02-23T05:49:22.823Z,0.00
2018-02-23T05:50:22.843Z,0.00
2018-02-23T05:51:22.823Z,0.00
2018-02-23T05:52:22.821Z,0.00
2018-02-23T05:53:22.831Z,0.00
2018-02-23T05:54:22.834Z,0.00
2018-02-23T05:55:22.843Z,0.00
2018-02-23T05:56:22.840Z,0.00
2018-02-23T05:57:22.843Z,0.00
2018-02-23T05:58:22.849Z,0.00
2018-02-23T05:59:22.869Z,0.00
2018-02-23T06:00:22.864Z,0.00
2018-02-23T06:01:22.872Z,0.00
2018-02-23T06:02:22.859Z,0.00
2018-02-23T06:03:22.903Z,0.00
2018-02-23T06:04:22.874Z,0.00
2018-02-23T06:05:22.886Z,0.00
2018-02-23T06:06:22.901Z,0.00
2018-02-23T06:07:22.930Z,0.00
2018-02-23T06:08:22.907Z,0.00
2018-02-23T06:09:22.910Z,0.00
2018-02-23T06:10:22.921Z,0.00
2018-02-23T06:11:22.928Z,0.00
2018-02-23T06:12:22.899Z,0.00
2018-02-23T06:13:22.901Z,0.00
2018-02-23T06:14:22.908Z,0.00
2018-02-23T06:15:22.910Z,0.00
2018-02-23T06:16:22.910Z,0.00
2018-02-23T06:17:22.921Z,5.63
2018-02-23T06:18:22.926Z,5.63
2018-02-23T06:19:22.975Z,5.63
2018-02-23T06:20:22.964Z,5.63
2018-02-23T06:21:22.948Z,5.63
2018-02-23T06:22:23.046Z,5.63
2018-02-23T06:23:22.998Z,5.63
2018-02-23T06:24:22.951Z,11.25
2018-02-23T06:25:22.968Z,11.25
2018-02-23T06:26:22.944Z,11.25
2018-02-23T06:27:22.948Z,11.25
2018-02-23T06:28:22.962Z,16.88
2018-02-23T06:29:22.962Z,16.88
2018-02-23T06:30:22.962Z,16.88
2018-02-23T06:31:22.965Z,22.50
2018-02-23T06:32:23.046Z,22.50
2018-02-23T06:33:23.143Z,22.50
2018-02-23T06:34:22.979Z,28.13
2018-02-23T06:35:22.975Z,28.13
2018-02-23T06:36:23.022Z,28.13
2018-02-23T06:37:22.992Z,33.75
2018-02-23T06:38:23.006Z,33.75
2018-02-23T06:39:23.009Z,39.38
2018-02-23T06:40:23.007Z,39.38
2018-02-23T06:41:23.004Z,45.00
2018-02-23T06:42:23.007Z,45.00
2018-02-23T06:43:23.055Z,50.63
2018-02-23T06:44:23.004Z,50.63
2018-02-23T06:45:23.019Z,56.25
2018-02-23T06:46:23.040Z,56.25
2018-02-23T06:47:23.031Z,61.88
2018-02-23T06:48:23.040Z,61.88
2018-02-23T06:49:23.036Z,67.50
2018-02-23T06:50:23.022Z,67.50
2018-02-23T06:51:23.043Z,73.13
2018-02-23T06:52:23.038Z,73.13
2018-02-23T06:53:23.056Z,78.75
2018-02-23T06:54:23.051Z,78.75
2018-02-23T06:55:23.083Z,84.38
2018-02-23T06:56:23.071Z,90.00
2018-02-23T06:57:23.088Z,90.00
2018-02-23T06:58:23.063Z,95.63
2018-02-23T06:59:23.061Z,95.63
2018-02-23T07:00:23.070Z,101.25
2018-02-23T07:01:23.116Z,101.25
2018-02-23T07:02:23.100Z,106.88
2018-02-23T07:03:23.208Z,106.88
2018-02-23T07:04:23.099Z,112.50
2018-02-23T07:05:23.118Z,118.13
2018-02-23T07:06:23.084Z,118.13
2018-02-23T07:07:23.099Z,123.75
2018-02-23T07:08:23.174Z,129.38
2018-02-23T07:09:23.148Z,135.00
2018-02-23T07:10:23.135Z,135.00
2018-02-23T07:11:23.108Z,140.63
2018-02-23T07:12:23.137Z,140.63
2018-02-23T07:13:23.113Z,146.25
2018-02-23T07:14:23.141Z,146.25
2018-02-23T07:15:23.122Z,151.88
2018-02-23T07:16:23.128Z,157.50
2018-02-23T07:17:23.133Z,157.50
2018-02-23T07:18:23.191Z,163.13
2018-02-23T07:19:23.164Z,163.13
2018-02-23T07:20:23.136Z,163.13
2018-02-23T07:21:23.174Z,168.75
2018-02-23T07:22:23.201Z,174.38
2018-02-23T07:23:23.158Z,174.38
2018-02-23T07:24:23.151Z,180.00
2018-02-23T07:25:23.172Z,180.00
2018-02-23T07:26:23.166Z,185.63
2018-02-23T07:27:23.171Z,191.25
2018-02-23T07:28:23.211Z,191.25
2018-02-23T07:29:23.184Z,191.25
2018-02-23T07:30:23.203Z,196.88
2018-02-23T07:31:23.186Z,202.50
2018-02-23T07:32:23.194Z,202.50
2018-02-23T07:33:23.219Z,208.13
2018-02-23T07:34:23.187Z,213.75
2018-02-23T07:35:23.206Z,219.38
2018-02-23T07:36:23.217Z,219.38
2018-02-23T07:37:23.197Z,225.00
2018-02-23T07:38:23.195Z,230.63
2018-02-23T07:39:23.214Z,230.63
2018-02-23T07:40:23.211Z,236.25
2018-02-23T07:41:23.213Z,236.25
2018-02-23T07:42:23.213Z,241.88
2018-02-23T07:43:23.220Z,241.88
2018-02-23T07:44:23.339Z,247.50
2018-02-23T07:45:23.222Z,253.13
2018-02-23T07:46:23.266Z,253.13
2018-02-23T07:47:23.240Z,286.88
2018-02-23T07:48:23.250Z,354.38
2018-02-23T07:49:23.253Z,433.13
2018-02-23T07:50:23.269Z,517.50
2018-02-23T07:51:23.270Z,652.50
2018-02-23T07:52:23.269Z,956.25
2018-02-23T07:53:23.298Z,1530.00
2018-02-23T07:54:23.262Z,1749.38
2018-02-23T07:55:23.262Z,1597.50
2018-02-23T07:56:23.267Z,1507.50
2018-02-23T07:57:23.342Z,1462.50
2018-02-23T07:58:23.331Z,1254.38
2018-02-23T07:59:23.310Z,1102.50
2018-02-23T08:00:23.289Z,1411.88
2018-02-23T08:01:23.296Z,1715.63
2018-02-23T08:02:23.347Z,1828.13
2018-02-23T08:03:23.311Z,1873.13
2018-02-23T08:04:23.322Z,1923.75
2018-02-23T08:05:23.318Z,1912.50
2018-02-23T08:06:23.330Z,1861.88
2018-02-23T08:07:23.336Z,1828.13
2018-02-23T08:08:23.330Z,1788.75
2018-02-23T08:09:23.360Z,1811.25
2018-02-23T08:10:23.367Z,1890.00
2018-02-23T08:11:23.382Z,1957.50
2018-02-23T08:12:23.386Z,1906.88
2018-02-23T08:13:23.391Z,1935.00
2018-02-23T08:14:23.374Z,1951.88
2018-02-23T08:15:23.388Z,1929.38
2018-02-23T08:16:23.504Z,1957.50
2018-02-23T08:17:23.410Z,1935.00
2018-02-23T08:18:23.421Z,2053.13
2018-02-23T08:19:23.468Z,2075.63
2018-02-23T08:20:23.469Z,1991.25
2018-02-23T08:21:23.475Z,2109.38
2018-02-23T08:22:23.469Z,2210.63
2018-02-23T08:23:23.486Z,2165.63
2018-02-23T08:24:23.500Z,1963.13
2018-02-23T08:25:23.502Z,1850.63
2018-02-23T08:26:23.501Z,1935.00
2018-02-23T08:27:23.588Z,1209.38
2018-02-23T08:28:23.527Z,922.50
2018-02-23T08:29:23.525Z,680.63
2018-02-23T08:30:23.537Z,1153.13
2018-02-23T08:31:23.560Z,585.00
2018-02-23T08:32:23.544Z,500.63
2018-02-23T08:33:23.568Z,438.75
2018-02-23T08:34:23.579Z,382.50
2018-02-23T08:35:23.650Z,360.00
2018-02-23T08:36:23.598Z,348.75
2018-02-23T08:37:23.612Z,354.38
2018-02-23T08:38:23.596Z,343.13
2018-02-23T08:39:23.652Z,337.50
2018-02-23T08:40:23.625Z,326.25
2018-02-23T08:41:23.642Z,326.25
2018-02-23T08:42:23.704Z,315.00
2018-02-23T08:43:23.655Z,326.25
2018-02-23T08:44:23.642Z,331.88
2018-02-23T08:45:23.655Z,331.88
2018-02-23T08:46:23.677Z,320.63
2018-02-23T08:47:23.686Z,337.50
2018-02-23T08:48:23.691Z,343.13
2018-02-23T08:49:23.689Z,360.00
2018-02-23T08:50:23.697Z,365.63
2018-02-23T08:51:23.695Z,376.88
2018-02-23T08:52:23.858Z,371.25
2018-02-23T08:53:23.722Z,343.13
2018-02-23T08:54:23.733Z,337.50
2018-02-23T08:55:23.766Z,326.25
2018-02-23T08:56:23.882Z,326.25
2018-02-23T08:57:23.740Z,331.88
2018-02-23T08:58:23.750Z,343.13
2018-02-23T08:59:23.793Z,348.75
2018-02-23T09:00:23.758Z,365.63
2018-02-23T09:01:23.804Z,405.00
2018-02-23T09:02:23.785Z,433.13
2018-02-23T09:03:23.796Z,523.13
2018-02-23T09:04:23.786Z,528.75
2018-02-23T09:05:23.795Z,635.63
2018-02-23T09:06:23.804Z,624.38
2018-02-23T09:07:23.793Z,736.88
2018-02-23T09:08:23.852Z,675.00
2018-02-23T09:09:23.801Z,1130.63
2018-02-23T09:10:23.817Z,826.88
2018-02-23T09:11:23.815Z,894.38
2018-02-23T09:12:23.839Z,894.38
2018-02-23T09:13:23.850Z,742.50
2018-02-23T09:14:23.847Z,2542.50
2018-02-23T09:15:23.896Z,815.63
2018-02-23T09:16:23.910Z,2531.25
2018-02-23T09:17:23.853Z,900.00
2018-02-23T09:18:23.863Z,1265.63
2018-02-23T09:19:23.874Z,871.88
2018-02-23T09:20:23.888Z,843.75
2018-02-23T09:21:23.923Z,877.50
2018-02-23T09:22:23.880Z,2711.25
2018-02-23T09:23:23.894Z,1125.00
2018-02-23T09:24:23.897Z,2430.00
2018-02-23T09:25:23.898Z,2610.00
2018-02-23T09:26:23.986Z,2176.88
2018-02-23T09:27:23.938Z,2880.00
2018-02-23T09:28:23.942Z,1254.38
2018-02-23T09:29:23.952Z,2143.13
2018-02-23T09:30:23.954Z,2390.63
2018-02-23T09:31:23.962Z,871.88
2018-02-23T09:32:23.974Z,1659.38
2018-02-23T09:33:23.989Z,2160.00
2018-02-23T09:34:23.994Z,1085.63
2018-02-23T09:35:24.002Z,1012.50
2018-02-23T09:36:24.013Z,849.38
2018-02-23T09:37:24.025Z,1198.13
2018-02-23T09:38:24.027Z,821.25
2018-02-23T09:39:24.580Z,945.00
2018-02-23T09:40:24.052Z,961.88
2018-02-23T09:41:24.060Z,2610.00
2018-02-23T09:42:24.087Z,2570.63
2018-02-23T09:43:24.071Z,1423.13
2018-02-23T09:44:24.102Z,2913.75
2018-02-23T09:45:24.086Z,939.38
2018-02-23T09:46:24.093Z,928.13
2018-02-23T09:47:24.105Z,1366.88
2018-02-23T09:48:24.100Z,2581.88
2018-02-23T09:49:24.144Z,708.75
2018-02-23T09:50:24.144Z,1288.13
2018-02-23T09:51:24.154Z,641.25
2018-02-23T09:52:24.174Z,759.38
2018-02-23T09:53:24.174Z,641.25
2018-02-23T09:54:25.074Z,3009.38
2018-02-23T09:55:24.208Z,860.63
2018-02-23T09:56:24.222Z,3172.50
2018-02-23T09:57:24.201Z,3060.00
2018-02-23T09:58:24.218Z,1530.00
2018-02-23T09:59:24.222Z,3105.00
2018-02-23T10:00:24.254Z,3037.50
2018-02-23T10:01:24.272Z,2908.13
2018-02-23T10:02:24.246Z,2998.13
2018-02-23T10:03:24.274Z,2953.13
2018-02-23T10:04:24.310Z,3099.38
2018-02-23T10:05:24.302Z,2446.88
2018-02-23T10:06:24.308Z,2998.13
2018-02-23T10:07:24.316Z,2992.50
2018-02-23T10:09:24.345Z,3414.38
2018-02-23T10:10:24.354Z,3296.25
2018-02-23T10:11:24.368Z,3144.38
2018-02-23T10:12:24.372Z,3020.63
2018-02-23T10:13:24.406Z,3076.88
2018-02-23T10:14:24.388Z,3245.63
2018-02-23T10:15:24.420Z,3358.13
2018-02-23T10:16:24.413Z,3363.75
2018-02-23T10:17:24.433Z,3487.50
2018-02-23T10:18:24.462Z,3532.50
2018-02-23T10:19:24.477Z,3498.75
2018-02-23T10:20:24.474Z,3808.13
2018-02-23T10:21:24.505Z,3791.25
2018-02-23T10:22:24.495Z,3690.00
2018-02-23T10:23:24.539Z,3656.25
2018-02-23T10:24:24.536Z,3735.00
2018-02-23T10:25:24.566Z,3870.00
2018-02-23T10:26:24.572Z,3785.63
2018-02-23T10:27:24.571Z,3999.38
2018-02-23T10:28:24.613Z,3858.75
2018-02-23T10:29:24.641Z,3976.88
2018-02-23T10:30:24.675Z,3763.13
2018-02-23T10:31:24.641Z,3723.75
2018-02-23T10:32:24.665Z,3971.25
2018-02-23T10:33:24.672Z,4033.13
2018-02-23T10:34:24.681Z,3808.13
2018-02-23T10:35:24.743Z,3858.75
2018-02-23T10:36:24.732Z,3965.63
2018-02-23T10:37:24.754Z,3847.50
2018-02-23T10:38:24.769Z,3960.00
2018-02-23T10:39:24.784Z,3948.75
2018-02-23T10:40:24.800Z,4145.63
2018-02-23T10:41:24.830Z,4173.75
2018-02-23T10:42:24.824Z,4078.13
2018-02-23T10:43:24.835Z,1777.50
2018-02-23T10:44:24.857Z,4185.00
2018-02-23T10:45:24.862Z,3453.75
2018-02-23T10:46:24.879Z,3960.00
2018-02-23T10:47:24.929Z,4100.63
2018-02-23T10:48:24.950Z,2683.13
2018-02-23T10:49:25.060Z,3819.38
2018-02-23T10:50:24.970Z,4117.50
2018-02-23T10:51:24.987Z,4061.25
2018-02-23T10:52:24.988Z,3712.50
2018-02-23T10:53:25.135Z,3780.00
2018-02-23T10:54:25.026Z,4179.38
2018-02-23T10:55:25.043Z,4145.63
2018-02-23T10:56:25.058Z,3600.00
2018-02-23T10:57:25.072Z,4269.38
2018-02-23T10:58:25.068Z,4218.75
2018-02-23T10:59:25.110Z,4303.13
2018-02-23T11:00:25.171Z,4269.38
2018-02-23T11:01:25.146Z,4258.13
2018-02-23T11:02:25.147Z,4320.00
2018-02-23T11:03:25.191Z,4286.25
2018-02-23T11:04:25.181Z,4145.63
2018-02-23T11:05:25.192Z,4156.88
2018-02-23T11:06:26.105Z,4449.38
2018-02-23T11:07:25.242Z,4410.00
2018-02-23T11:08:25.305Z,4370.63
2018-02-23T11:09:25.294Z,4286.25
2018-02-23T11:10:25.276Z,4308.75
2018-02-23T11:11:25.294Z,4275.00
2018-02-23T11:12:25.310Z,4308.75
2018-02-23T11:13:25.404Z,4398.75
2018-02-23T11:14:25.394Z,4156.88
2018-02-23T11:15:25.361Z,4145.63
2018-02-23T11:16:25.392Z,4230.00
2018-02-23T11:17:25.463Z,4196.25
2018-02-23T11:18:25.425Z,4106.25
2018-02-23T11:19:25.462Z,4140.00
2018-02-23T11:20:25.573Z,4303.13
2018-02-23T11:21:25.499Z,4308.75
2018-02-23T11:22:25.491Z,4235.63
2018-02-23T11:23:25.506Z,4432.50
2018-02-23T11:24:25.513Z,4381.88
2018-02-23T11:25:25.524Z,4432.50
2018-02-23T11:26:25.556Z,4410.00
2018-02-23T11:27:25.566Z,4314.38
2018-02-23T11:28:25.572Z,4365.00
2018-02-23T11:29:25.587Z,4336.88
2018-02-23T11:30:25.675Z,4156.88
2018-02-23T11:31:25.630Z,4128.75
2018-02-23T11:32:25.673Z,4494.38
2018-02-23T11:33:25.720Z,4331.25
2018-02-23T11:34:25.792Z,4185.00
2018-02-23T11:35:25.702Z,4477.50
2018-02-23T11:36:25.723Z,4449.38
2018-02-23T11:37:25.747Z,4235.63
2018-02-23T11:38:25.750Z,4325.63
2018-02-23T11:39:25.830Z,4218.75
2018-02-23T11:40:25.855Z,4348.13
2018-02-23T11:41:25.819Z,4415.63
2018-02-23T11:42:25.815Z,4325.63
2018-02-23T11:43:25.849Z,4162.50
2018-02-23T11:44:25.885Z,4528.13
2018-02-23T11:45:25.905Z,4528.13
2018-02-23T11:46:25.965Z,4224.38
2018-02-23T11:47:25.915Z,4196.25
2018-02-23T11:48:25.926Z,4421.25
2018-02-23T11:49:26.018Z,4218.75
2018-02-23T11:50:25.999Z,4263.75
2018-02-23T11:51:26.060Z,4336.88
2018-02-23T11:52:25.998Z,4376.25
2018-02-23T11:53:26.005Z,3960.00
2018-02-23T11:54:26.039Z,4033.13
2018-02-23T11:55:26.238Z,4291.88
2018-02-23T11:56:26.138Z,4055.63
2018-02-23T11:57:26.123Z,3909.38
2018-02-23T11:58:26.102Z,4005.00
2018-02-23T11:59:26.135Z,3954.38
2018-02-23T12:00:26.126Z,4044.38
2018-02-23T12:01:26.182Z,3993.75
2018-02-23T12:02:26.222Z,4218.75
2018-02-23T12:03:26.181Z,4140.00
2018-02-23T12:04:26.197Z,4235.63
2018-02-23T12:05:26.231Z,4303.13
2018-02-23T12:06:26.243Z,4230.00
2018-02-23T12:07:26.262Z,4331.25
2018-02-23T12:08:26.304Z,4111.88
2018-02-23T12:09:26.348Z,4218.75
2018-02-23T12:10:26.324Z,4162.50
2018-02-23T12:11:26.321Z,4201.88
2018-02-23T12:12:26.338Z,3920.63
2018-02-23T12:13:26.372Z,3768.75
2018-02-23T12:14:26.368Z,3965.63
2018-02-23T12:15:26.390Z,3830.63
2018-02-23T12:16:26.410Z,3960.00
2018-02-23T12:17:26.428Z,3920.63
2018-02-23T12:18:26.493Z,3532.50
2018-02-23T12:19:26.459Z,3341.25
2018-02-23T12:20:26.484Z,3566.25
2018-02-23T12:21:26.575Z,3138.75
2018-02-23T12:22:26.546Z,3526.88
2018-02-23T12:23:26.608Z,3515.63
2018-02-23T12:24:26.623Z,3594.38
2018-02-23T12:25:26.562Z,3690.00
2018-02-23T12:26:26.579Z,3656.25
2018-02-23T12:27:26.614Z,3611.25
2018-02-23T12:28:26.680Z,3403.13
2018-02-23T12:29:26.646Z,3538.13
2018-02-23T12:30:26.669Z,3487.50
2018-02-23T12:31:26.680Z,3436.88
2018-02-23T12:32:26.693Z,3487.50
2018-02-23T12:33:26.865Z,3684.38
2018-02-23T12:34:26.733Z,3566.25
2018-02-23T12:35:26.775Z,3414.38
2018-02-23T12:36:26.788Z,3375.00
2018-02-23T12:37:26.816Z,3684.38
2018-02-23T12:38:26.804Z,3993.75
2018-02-23T12:39:26.813Z,4100.63
2018-02-23T12:40:26.853Z,3858.75
2018-02-23T12:41:26.855Z,3819.38
2018-02-23T12:42:26.875Z,3870.00
2018-02-23T12:43:26.929Z,3847.50
2018-02-23T12:44:26.912Z,3870.00
2018-02-23T12:45:26.930Z,4055.63
2018-02-23T12:46:26.949Z,3971.25
2018-02-23T12:47:26.971Z,3735.00
2018-02-23T12:48:26.984Z,3768.75